sensor_id;sensor_type;location;lat;lon;timestamp;temperature;humidity
51476;DHT22;37554;50.362;7.568;2023-03-14T00:00:30;17.20;54.80
51476;DHT22;37554;50.362;7.568;2023-03-14T00:02:55;17.20;54.80
51476;DHT22;37554;50.362;7.568;2023-03-14T00:05:21;17.20;54.80
51476;DHT22;37554;50.362;7.568;2023-03-14T00:07:46;17.20;54.70
51476;DHT22;37554;50.362;7.568;2023-03-14T00:10:14;17.20;54.80
51476;DHT22;37554;50.362;7.568;2023-03-14T00:12:41;17.20;54.80
51476;DHT22;37554;50.362;7.568;2023-03-14T00:15:07;17.20;54.80
51476;DHT22;37554;50.362;7.568;2023-03-14T00:17:34;17.20;54.80
51476;DHT22;37554;50.362;7.568;2023-03-14T00:20:01;17.10;54.80
51476;DHT22;37554;50.362;7.568;2023-03-14T00:22:35;17.10;54.80
51476;DHT22;37554;50.362;7.568;2023-03-14T00:25:00;17.10;54.80
51476;DHT22;37554;50.362;7.568;2023-03-14T00:27:26;17.10;54.70
51476;DHT22;37554;50.362;7.568;2023-03-14T00:29:52;17.10;54.80
51476;DHT22;37554;50.362;7.568;2023-03-14T00:32:17;17.10;54.80
51476;DHT22;37554;50.362;7.568;2023-03-14T00:34:43;17.10;54.80
51476;DHT22;37554;50.362;7.568;2023-03-14T00:37:09;17.10;54.90
51476;DHT22;37554;50.362;7.568;2023-03-14T00:39:34;17.10;54.90
51476;DHT22;37554;50.362;7.568;2023-03-14T00:42:00;17.10;54.80
51476;DHT22;37554;50.362;7.568;2023-03-14T00:44:25;17.10;54.80
51476;DHT22;37554;50.362;7.568;2023-03-14T00:46:51;17.10;54.90
51476;DHT22;37554;50.362;7.568;2023-03-14T00:49:17;17.10;54.90
51476;DHT22;37554;50.362;7.568;2023-03-14T00:51:42;17.10;54.90
51476;DHT22;37554;50.362;7.568;2023-03-14T00:54:08;17.10;54.90
51476;DHT22;37554;50.362;7.568;2023-03-14T00:56:34;17.10;54.80
51476;DHT22;37554;50.362;7.568;2023-03-14T00:59:00;17.10;54.90
51476;DHT22;37554;50.362;7.568;2023-03-14T01:01:25;17.10;54.90
51476;DHT22;37554;50.362;7.568;2023-03-14T01:03:52;17.10;54.90
51476;DHT22;37554;50.362;7.568;2023-03-14T01:06:20;17.00;54.90
51476;DHT22;37554;50.362;7.568;2023-03-14T01:08:47;17.00;55.00
51476;DHT22;37554;50.362;7.568;2023-03-14T01:11:18;17.00;55.00
51476;DHT22;37554;50.362;7.568;2023-03-14T01:13:45;17.00;55.00
51476;DHT22;37554;50.362;7.568;2023-03-14T01:16:11;17.00;55.00
51476;DHT22;37554;50.362;7.568;2023-03-14T01:18:39;17.00;55.10
51476;DHT22;37554;50.362;7.568;2023-03-14T01:21:11;17.00;55.10
51476;DHT22;37554;50.362;7.568;2023-03-14T01:23:37;17.00;55.00
51476;DHT22;37554;50.362;7.568;2023-03-14T01:26:02;17.00;55.00
51476;DHT22;37554;50.362;7.568;2023-03-14T01:28:28;17.00;55.10
51476;DHT22;37554;50.362;7.568;2023-03-14T01:30:54;17.00;55.10
51476;DHT22;37554;50.362;7.568;2023-03-14T01:33:19;17.00;55.10
51476;DHT22;37554;50.362;7.568;2023-03-14T01:35:45;17.00;55.20
51476;DHT22;37554;50.362;7.568;2023-03-14T01:38:11;16.90;55.20
51476;DHT22;37554;50.362;7.568;2023-03-14T01:40:45;16.90;55.20
51476;DHT22;37554;50.362;7.568;2023-03-14T01:43:19;16.90;55.30
51476;DHT22;37554;50.362;7.568;2023-03-14T01:48:37;16.80;55.40
51476;DHT22;37554;50.362;7.568;2023-03-14T01:51:07;16.80;55.30
51476;DHT22;37554;50.362;7.568;2023-03-14T01:53:35;16.80;55.30
51476;DHT22;37554;50.362;7.568;2023-03-14T01:56:02;16.80;55.30
51476;DHT22;37554;50.362;7.568;2023-03-14T01:58:30;16.80;55.40
51476;DHT22;37554;50.362;7.568;2023-03-14T02:01:02;16.80;55.40
51476;DHT22;37554;50.362;7.568;2023-03-14T02:03:29;16.80;55.30
51476;DHT22;37554;50.362;7.568;2023-03-14T02:05:57;16.80;55.30
51476;DHT22;37554;50.362;7.568;2023-03-14T02:08:27;16.80;55.20
51476;DHT22;37554;50.362;7.568;2023-03-14T02:10:53;16.80;55.20
51476;DHT22;37554;50.362;7.568;2023-03-14T02:13:20;16.80;55.20
51476;DHT22;37554;50.362;7.568;2023-03-14T02:15:47;16.80;55.10
51476;DHT22;37554;50.362;7.568;2023-03-14T02:18:14;16.80;55.20
51476;DHT22;37554;50.362;7.568;2023-03-14T02:23:36;16.70;55.10
51476;DHT22;37554;50.362;7.568;2023-03-14T02:26:15;16.70;55.10
51476;DHT22;37554;50.362;7.568;2023-03-14T02:28:44;16.70;55.20
51476;DHT22;37554;50.362;7.568;2023-03-14T02:31:09;16.70;55.10
51476;DHT22;37554;50.362;7.568;2023-03-14T02:33:36;16.70;55.20
51476;DHT22;37554;50.362;7.568;2023-03-14T02:36:06;16.60;55.20
51476;DHT22;37554;50.362;7.568;2023-03-14T02:38:36;16.60;55.20
51476;DHT22;37554;50.362;7.568;2023-03-14T02:41:03;16.60;55.10
51476;DHT22;37554;50.362;7.568;2023-03-14T02:43:29;16.60;55.10
51476;DHT22;37554;50.362;7.568;2023-03-14T02:45:55;16.60;55.10
51476;DHT22;37554;50.362;7.568;2023-03-14T02:48:33;16.60;55.10
51476;DHT22;37554;50.362;7.568;2023-03-14T02:51:02;16.60;55.80
51476;DHT22;37554;50.362;7.568;2023-03-14T02:53:30;16.60;55.10
51476;DHT22;37554;50.362;7.568;2023-03-14T02:55:57;16.60;55.10
51476;DHT22;37554;50.362;7.568;2023-03-14T02:58:23;16.60;55.10
51476;DHT22;37554;50.362;7.568;2023-03-14T03:00:49;16.50;55.10
51476;DHT22;37554;50.362;7.568;2023-03-14T03:03:15;16.50;55.00
51476;DHT22;37554;50.362;7.568;2023-03-14T03:05:41;16.60;55.00
51476;DHT22;37554;50.362;7.568;2023-03-14T03:08:08;16.50;54.90
51476;DHT22;37554;50.362;7.568;2023-03-14T03:10:34;16.50;54.90
51476;DHT22;37554;50.362;7.568;2023-03-14T03:12:59;16.50;54.90
51476;DHT22;37554;50.362;7.568;2023-03-14T03:15:25;16.50;54.90
51476;DHT22;37554;50.362;7.568;2023-03-14T03:17:51;16.50;54.90
51476;DHT22;37554;50.362;7.568;2023-03-14T03:20:17;16.50;54.90
51476;DHT22;37554;50.362;7.568;2023-03-14T03:22:42;16.50;54.80
51476;DHT22;37554;50.362;7.568;2023-03-14T03:25:08;16.50;54.90
51476;DHT22;37554;50.362;7.568;2023-03-14T03:27:36;16.40;54.80
51476;DHT22;37554;50.362;7.568;2023-03-14T03:30:03;16.40;54.90
51476;DHT22;37554;50.362;7.568;2023-03-14T03:32:29;16.40;54.90
51476;DHT22;37554;50.362;7.568;2023-03-14T03:34:54;16.40;54.80
51476;DHT22;37554;50.362;7.568;2023-03-14T03:37:20;16.40;54.80
51476;DHT22;37554;50.362;7.568;2023-03-14T03:39:46;16.40;54.90
51476;DHT22;37554;50.362;7.568;2023-03-14T03:42:11;16.40;54.90
51476;DHT22;37554;50.362;7.568;2023-03-14T03:44:37;16.40;54.90
51476;DHT22;37554;50.362;7.568;2023-03-14T03:47:03;16.40;54.80
51476;DHT22;37554;50.362;7.568;2023-03-14T03:49:32;16.40;54.80
51476;DHT22;37554;50.362;7.568;2023-03-14T03:51:58;16.30;54.80
51476;DHT22;37554;50.362;7.568;2023-03-14T03:54:24;16.40;54.90
51476;DHT22;37554;50.362;7.568;2023-03-14T03:56:50;16.30;54.80
51476;DHT22;37554;50.362;7.568;2023-03-14T03:59:16;16.40;54.90
51476;DHT22;37554;50.362;7.568;2023-03-14T04:01:42;16.30;54.80
51476;DHT22;37554;50.362;7.568;2023-03-14T04:04:08;16.30;54.80
51476;DHT22;37554;50.362;7.568;2023-03-14T04:06:33;16.30;54.90
51476;DHT22;37554;50.362;7.568;2023-03-14T04:08:59;16.30;54.90
51476;DHT22;37554;50.362;7.568;2023-03-14T04:11:25;16.30;54.90
51476;DHT22;37554;50.362;7.568;2023-03-14T04:13:50;16.30;55.00
51476;DHT22;37554;50.362;7.568;2023-03-14T04:16:22;16.30;55.00
51476;DHT22;37554;50.362;7.568;2023-03-14T04:18:48;16.30;55.00
51476;DHT22;37554;50.362;7.568;2023-03-14T04:21:13;16.30;55.10
51476;DHT22;37554;50.362;7.568;2023-03-14T04:23:39;16.30;55.10
51476;DHT22;37554;50.362;7.568;2023-03-14T04:26:05;16.30;55.20
51476;DHT22;37554;50.362;7.568;2023-03-14T04:28:31;16.20;55.10
51476;DHT22;37554;50.362;7.568;2023-03-14T04:30:57;16.20;55.10
51476;DHT22;37554;50.362;7.568;2023-03-14T04:33:22;16.20;55.10
51476;DHT22;37554;50.362;7.568;2023-03-14T04:35:48;16.20;55.10
51476;DHT22;37554;50.362;7.568;2023-03-14T04:38:15;16.20;55.20
51476;DHT22;37554;50.362;7.568;2023-03-14T04:40:41;16.20;55.20
51476;DHT22;37554;50.362;7.568;2023-03-14T04:43:08;16.20;55.20
51476;DHT22;37554;50.362;7.568;2023-03-14T04:45:35;16.20;55.20
51476;DHT22;37554;50.362;7.568;2023-03-14T04:48:01;16.20;55.90
51476;DHT22;37554;50.362;7.568;2023-03-14T04:50:26;16.20;55.30
51476;DHT22;37554;50.362;7.568;2023-03-14T04:52:52;16.20;55.30
51476;DHT22;37554;50.362;7.568;2023-03-14T04:55:18;16.20;55.30
51476;DHT22;37554;50.362;7.568;2023-03-14T04:57:43;16.20;55.40
51476;DHT22;37554;50.362;7.568;2023-03-14T05:00:09;16.20;55.40
51476;DHT22;37554;50.362;7.568;2023-03-14T05:02:35;16.20;55.40
51476;DHT22;37554;50.362;7.568;2023-03-14T05:05:01;16.20;55.40
51476;DHT22;37554;50.362;7.568;2023-03-14T05:07:27;16.20;55.40
51476;DHT22;37554;50.362;7.568;2023-03-14T05:09:52;16.20;55.50
51476;DHT22;37554;50.362;7.568;2023-03-14T05:12:22;16.20;55.50
51476;DHT22;37554;50.362;7.568;2023-03-14T05:14:47;16.20;55.50
51476;DHT22;37554;50.362;7.568;2023-03-14T05:17:14;16.20;55.50
51476;DHT22;37554;50.362;7.568;2023-03-14T05:19:41;16.20;55.50
51476;DHT22;37554;50.362;7.568;2023-03-14T05:22:06;16.20;55.60
51476;DHT22;37554;50.362;7.568;2023-03-14T05:24:33;16.20;55.60
51476;DHT22;37554;50.362;7.568;2023-03-14T05:26:58;16.20;55.70
51476;DHT22;37554;50.362;7.568;2023-03-14T05:29:24;16.20;55.70
51476;DHT22;37554;50.362;7.568;2023-03-14T05:31:50;16.20;55.70
51476;DHT22;37554;50.362;7.568;2023-03-14T05:34:15;16.20;55.80
51476;DHT22;37554;50.362;7.568;2023-03-14T05:36:41;16.20;55.80
51476;DHT22;37554;50.362;7.568;2023-03-14T05:39:07;16.20;55.80
51476;DHT22;37554;50.362;7.568;2023-03-14T05:41:32;16.20;55.70
51476;DHT22;37554;50.362;7.568;2023-03-14T05:43:58;16.10;55.70
51476;DHT22;37554;50.362;7.568;2023-03-14T05:46:23;16.10;55.60
51476;DHT22;37554;50.362;7.568;2023-03-14T05:48:49;16.10;55.60
51476;DHT22;37554;50.362;7.568;2023-03-14T05:51:15;16.10;55.60
51476;DHT22;37554;50.362;7.568;2023-03-14T05:53:40;16.10;55.50
51476;DHT22;37554;50.362;7.568;2023-03-14T05:56:06;16.10;55.50
51476;DHT22;37554;50.362;7.568;2023-03-14T05:58:32;16.10;55.60
51476;DHT22;37554;50.362;7.568;2023-03-14T06:01:02;16.10;55.50
51476;DHT22;37554;50.362;7.568;2023-03-14T06:03:27;16.10;55.50
51476;DHT22;37554;50.362;7.568;2023-03-14T06:05:53;16.10;55.50
51476;DHT22;37554;50.362;7.568;2023-03-14T06:08:18;16.10;55.50
51476;DHT22;37554;50.362;7.568;2023-03-14T06:10:44;16.10;55.50
51476;DHT22;37554;50.362;7.568;2023-03-14T06:13:10;16.10;55.50
51476;DHT22;37554;50.362;7.568;2023-03-14T06:15:35;16.00;55.40
51476;DHT22;37554;50.362;7.568;2023-03-14T06:18:01;16.10;55.50
51476;DHT22;37554;50.362;7.568;2023-03-14T06:20:27;16.10;55.50
51476;DHT22;37554;50.362;7.568;2023-03-14T06:22:53;16.10;55.50
51476;DHT22;37554;50.362;7.568;2023-03-14T06:25:19;16.10;55.50
51476;DHT22;37554;50.362;7.568;2023-03-14T06:27:44;16.10;55.50
51476;DHT22;37554;50.362;7.568;2023-03-14T06:30:10;16.10;55.50
51476;DHT22;37554;50.362;7.568;2023-03-14T06:32:36;16.10;55.50
51476;DHT22;37554;50.362;7.568;2023-03-14T06:35:02;16.10;55.50
51476;DHT22;37554;50.362;7.568;2023-03-14T06:37:28;16.10;55.60
51476;DHT22;37554;50.362;7.568;2023-03-14T06:39:55;16.10;55.60
51476;DHT22;37554;50.362;7.568;2023-03-14T06:42:21;16.10;55.90
51476;DHT22;37554;50.362;7.568;2023-03-14T06:44:48;15.90;56.50
51476;DHT22;37554;50.362;7.568;2023-03-14T06:47:14;15.70;57.00
51476;DHT22;37554;50.362;7.568;2023-03-14T06:49:40;15.60;57.30
51476;DHT22;37554;50.362;7.568;2023-03-14T06:52:12;15.40;57.70
51476;DHT22;37554;50.362;7.568;2023-03-14T06:54:38;15.40;58.10
51476;DHT22;37554;50.362;7.568;2023-03-14T06:57:06;15.30;58.30
51476;DHT22;37554;50.362;7.568;2023-03-14T06:59:32;15.40;58.20
51476;DHT22;37554;50.362;7.568;2023-03-14T07:01:57;15.60;58.10
51476;DHT22;37554;50.362;7.568;2023-03-14T07:04:43;15.80;57.80
51476;DHT22;37554;50.362;7.568;2023-03-14T07:07:12;15.90;57.80
51476;DHT22;37554;50.362;7.568;2023-03-14T07:09:49;16.00;57.40
51476;DHT22;37554;50.362;7.568;2023-03-14T07:12:21;16.10;57.30
51476;DHT22;37554;50.362;7.568;2023-03-14T07:15:08;16.10;57.20
51476;DHT22;37554;50.362;7.568;2023-03-14T07:17:39;16.20;57.20
51476;DHT22;37554;50.362;7.568;2023-03-14T07:20:08;16.20;57.10
51476;DHT22;37554;50.362;7.568;2023-03-14T07:22:37;16.30;57.00
51476;DHT22;37554;50.362;7.568;2023-03-14T07:25:03;16.30;56.90
51476;DHT22;37554;50.362;7.568;2023-03-14T07:27:34;16.40;56.90
51476;DHT22;37554;50.362;7.568;2023-03-14T07:30:00;16.50;57.50
51476;DHT22;37554;50.362;7.568;2023-03-14T07:32:26;16.50;56.80
51476;DHT22;37554;50.362;7.568;2023-03-14T07:34:52;16.60;56.70
51476;DHT22;37554;50.362;7.568;2023-03-14T07:37:18;16.70;56.60
51476;DHT22;37554;50.362;7.568;2023-03-14T07:39:47;16.70;56.40
51476;DHT22;37554;50.362;7.568;2023-03-14T07:42:25;16.70;56.40
51476;DHT22;37554;50.362;7.568;2023-03-14T07:44:53;16.80;56.30
51476;DHT22;37554;50.362;7.568;2023-03-14T07:47:19;16.80;56.20
51476;DHT22;37554;50.362;7.568;2023-03-14T07:49:45;16.90;56.10
51476;DHT22;37554;50.362;7.568;2023-03-14T07:52:13;17.00;55.90
51476;DHT22;37554;50.362;7.568;2023-03-14T07:54:42;17.10;55.80
51476;DHT22;37554;50.362;7.568;2023-03-14T07:57:08;17.10;55.70
51476;DHT22;37554;50.362;7.568;2023-03-14T07:59:37;17.10;55.60
51476;DHT22;37554;50.362;7.568;2023-03-14T08:02:12;17.20;55.60
51476;DHT22;37554;50.362;7.568;2023-03-14T08:04:39;17.20;55.60
51476;DHT22;37554;50.362;7.568;2023-03-14T08:07:05;17.10;55.60
51476;DHT22;37554;50.362;7.568;2023-03-14T08:09:31;17.10;55.70
51476;DHT22;37554;50.362;7.568;2023-03-14T08:11:57;17.10;55.70
51476;DHT22;37554;50.362;7.568;2023-03-14T08:14:23;17.10;55.70
51476;DHT22;37554;50.362;7.568;2023-03-14T08:16:51;17.20;55.80
51476;DHT22;37554;50.362;7.568;2023-03-14T08:19:20;17.20;55.70
51476;DHT22;37554;50.362;7.568;2023-03-14T08:21:49;17.20;55.60
51476;DHT22;37554;50.362;7.568;2023-03-14T08:24:18;17.30;55.50
51476;DHT22;37554;50.362;7.568;2023-03-14T08:26:44;17.40;55.50
51476;DHT22;37554;50.362;7.568;2023-03-14T08:29:18;17.40;55.40
51476;DHT22;37554;50.362;7.568;2023-03-14T08:31:44;17.50;55.40
51476;DHT22;37554;50.362;7.568;2023-03-14T08:34:32;17.50;55.30
51476;DHT22;37554;50.362;7.568;2023-03-14T08:37:03;17.60;55.30
51476;DHT22;37554;50.362;7.568;2023-03-14T08:39:29;17.70;55.20
51476;DHT22;37554;50.362;7.568;2023-03-14T08:41:55;17.70;55.00
51476;DHT22;37554;50.362;7.568;2023-03-14T08:44:20;17.80;55.00
51476;DHT22;37554;50.362;7.568;2023-03-14T08:46:46;17.80;54.80
51476;DHT22;37554;50.362;7.568;2023-03-14T08:49:18;17.90;54.70
51476;DHT22;37554;50.362;7.568;2023-03-14T08:51:46;17.90;54.70
51476;DHT22;37554;50.362;7.568;2023-03-14T08:54:15;18.00;54.60
51476;DHT22;37554;50.362;7.568;2023-03-14T08:56:44;18.10;54.50
51476;DHT22;37554;50.362;7.568;2023-03-14T08:59:18;18.10;54.40
51476;DHT22;37554;50.362;7.568;2023-03-14T09:01:47;18.20;54.20
51476;DHT22;37554;50.362;7.568;2023-03-14T09:04:13;18.20;54.20
51476;DHT22;37554;50.362;7.568;2023-03-14T09:06:39;18.30;54.10
51476;DHT22;37554;50.362;7.568;2023-03-14T09:09:18;18.40;54.00
51476;DHT22;37554;50.362;7.568;2023-03-14T09:11:44;18.50;53.90
51476;DHT22;37554;50.362;7.568;2023-03-14T09:14:15;18.50;53.80
51476;DHT22;37554;50.362;7.568;2023-03-14T09:16:44;18.50;53.70
51476;DHT22;37554;50.362;7.568;2023-03-14T09:19:11;18.50;53.60
51476;DHT22;37554;50.362;7.568;2023-03-14T09:21:36;18.50;53.60
51476;DHT22;37554;50.362;7.568;2023-03-14T09:24:04;18.50;53.70
51476;DHT22;37554;50.362;7.568;2023-03-14T09:26:33;18.60;53.60
51476;DHT22;37554;50.362;7.568;2023-03-14T09:29:07;18.60;53.60
51476;DHT22;37554;50.362;7.568;2023-03-14T09:31:33;18.60;53.60
51476;DHT22;37554;50.362;7.568;2023-03-14T09:33:59;18.60;53.60
51476;DHT22;37554;50.362;7.568;2023-03-14T09:36:30;18.60;53.60
51476;DHT22;37554;50.362;7.568;2023-03-14T09:38:56;18.60;53.60
51476;DHT22;37554;50.362;7.568;2023-03-14T09:41:26;18.60;53.50
51476;DHT22;37554;50.362;7.568;2023-03-14T09:44:19;18.60;53.50
51476;DHT22;37554;50.362;7.568;2023-03-14T09:46:50;18.60;53.50
51476;DHT22;37554;50.362;7.568;2023-03-14T09:49:32;18.60;53.50
51476;DHT22;37554;50.362;7.568;2023-03-14T09:52:00;18.60;53.50
51476;DHT22;37554;50.362;7.568;2023-03-14T09:54:47;18.60;53.40
51476;DHT22;37554;50.362;7.568;2023-03-14T09:57:18;18.70;53.40
51476;DHT22;37554;50.362;7.568;2023-03-14T09:59:46;18.70;53.40
51476;DHT22;37554;50.362;7.568;2023-03-14T10:02:24;18.70;53.40
51476;DHT22;37554;50.362;7.568;2023-03-14T10:05:14;18.70;53.30
51476;DHT22;37554;50.362;7.568;2023-03-14T10:07:40;18.70;53.30
51476;DHT22;37554;50.362;7.568;2023-03-14T10:10:15;18.70;53.30
51476;DHT22;37554;50.362;7.568;2023-03-14T10:12:47;18.70;53.30
51476;DHT22;37554;50.362;7.568;2023-03-14T10:15:42;18.70;53.40
51476;DHT22;37554;50.362;7.568;2023-03-14T10:18:15;18.70;53.40
51476;DHT22;37554;50.362;7.568;2023-03-14T10:20:46;18.70;53.60
51476;DHT22;37554;50.362;7.568;2023-03-14T10:25:41;18.70;53.50
51476;DHT22;37554;50.362;7.568;2023-03-14T10:28:24;18.70;53.60
51476;DHT22;37554;50.362;7.568;2023-03-14T10:30:50;18.70;53.60
51476;DHT22;37554;50.362;7.568;2023-03-14T10:33:22;18.70;53.60
51476;DHT22;37554;50.362;7.568;2023-03-14T10:35:56;18.70;53.60
51476;DHT22;37554;50.362;7.568;2023-03-14T10:38:24;18.70;53.60
51476;DHT22;37554;50.362;7.568;2023-03-14T10:40:52;18.70;53.50
51476;DHT22;37554;50.362;7.568;2023-03-14T10:43:22;18.70;53.50
51476;DHT22;37554;50.362;7.568;2023-03-14T10:46:10;18.70;53.50
51476;DHT22;37554;50.362;7.568;2023-03-14T10:48:38;18.80;53.50
51476;DHT22;37554;50.362;7.568;2023-03-14T10:51:27;18.80;53.60
51476;DHT22;37554;50.362;7.568;2023-03-14T10:54:11;18.70;54.30
51476;DHT22;37554;50.362;7.568;2023-03-14T10:56:38;18.60;54.80
51476;DHT22;37554;50.362;7.568;2023-03-14T10:59:07;18.60;55.50
51476;DHT22;37554;50.362;7.568;2023-03-14T11:01:38;18.60;55.80
51476;DHT22;37554;50.362;7.568;2023-03-14T11:04:15;18.60;56.00
51476;DHT22;37554;50.362;7.568;2023-03-14T11:06:58;18.60;56.10
51476;DHT22;37554;50.362;7.568;2023-03-14T11:32:02;18.00;58.20
51476;DHT22;37554;50.362;7.568;2023-03-14T11:34:39;18.00;57.90
51476;DHT22;37554;50.362;7.568;2023-03-14T11:37:36;18.00;58.00
51476;DHT22;37554;50.362;7.568;2023-03-14T11:40:17;18.00;58.20
51476;DHT22;37554;50.362;7.568;2023-03-14T11:43:13;18.00;57.90
51476;DHT22;37554;50.362;7.568;2023-03-14T11:45:50;18.00;58.10
51476;DHT22;37554;50.362;7.568;2023-03-14T11:50:49;18.10;57.90
51476;DHT22;37554;50.362;7.568;2023-03-14T11:53:22;18.10;57.80
51476;DHT22;37554;50.362;7.568;2023-03-14T11:56:00;18.10;57.60
51476;DHT22;37554;50.362;7.568;2023-03-14T11:58:29;18.20;57.60
51476;DHT22;37554;50.362;7.568;2023-03-14T12:00:57;18.10;57.60
51476;DHT22;37554;50.362;7.568;2023-03-14T12:06:51;18.10;57.80
51476;DHT22;37554;50.362;7.568;2023-03-14T12:09:20;18.10;57.70
51476;DHT22;37554;50.362;7.568;2023-03-14T12:12:12;18.10;57.60
51476;DHT22;37554;50.362;7.568;2023-03-14T12:14:44;18.40;57.30
51476;DHT22;37554;50.362;7.568;2023-03-14T12:22:43;18.50;56.60
51476;DHT22;37554;50.362;7.568;2023-03-14T12:25:26;18.60;56.60
51476;DHT22;37554;50.362;7.568;2023-03-14T12:30:29;22.00;52.20
51476;DHT22;37554;50.362;7.568;2023-03-14T12:35:47;24.10;46.40
51476;DHT22;37554;50.362;7.568;2023-03-14T12:43:42;22.30;49.60
51476;DHT22;37554;50.362;7.568;2023-03-14T12:49:05;21.40;51.00
51476;DHT22;37554;50.362;7.568;2023-03-14T12:51:37;21.20;51.60
51476;DHT22;37554;50.362;7.568;2023-03-14T12:56:58;20.90;52.60
51476;DHT22;37554;50.362;7.568;2023-03-14T13:04:37;20.70;53.20
51476;DHT22;37554;50.362;7.568;2023-03-14T13:12:28;20.70;53.60
51476;DHT22;37554;50.362;7.568;2023-03-14T13:14:58;20.60;53.70
51476;DHT22;37554;50.362;7.568;2023-03-14T13:17:28;20.60;53.80
51476;DHT22;37554;50.362;7.568;2023-03-14T13:19:58;20.60;53.90
51476;DHT22;37554;50.362;7.568;2023-03-14T13:22:28;20.60;53.80
51476;DHT22;37554;50.362;7.568;2023-03-14T13:25:07;20.30;51.10
51476;DHT22;37554;50.362;7.568;2023-03-14T13:27:34;19.40;49.30
51476;DHT22;37554;50.362;7.568;2023-03-14T13:30:26;19.00;51.00
51476;DHT22;37554;50.362;7.568;2023-03-14T13:32:53;19.00;50.50
51476;DHT22;37554;50.362;7.568;2023-03-14T13:35:29;19.00;51.70
51476;DHT22;37554;50.362;7.568;2023-03-14T13:37:59;19.20;51.80
51476;DHT22;37554;50.362;7.568;2023-03-14T13:40:32;19.20;52.00
51476;DHT22;37554;50.362;7.568;2023-03-14T13:45:56;19.20;52.40
51476;DHT22;37554;50.362;7.568;2023-03-14T13:48:28;19.10;52.50
51476;DHT22;37554;50.362;7.568;2023-03-14T13:50:58;19.00;52.80
51476;DHT22;37554;50.362;7.568;2023-03-14T13:53:25;19.00;53.00
51476;DHT22;37554;50.362;7.568;2023-03-14T13:55:51;18.90;53.10
51476;DHT22;37554;50.362;7.568;2023-03-14T13:58:25;18.90;53.40
51476;DHT22;37554;50.362;7.568;2023-03-14T14:03:25;18.70;53.60
51476;DHT22;37554;50.362;7.568;2023-03-14T14:05:50;18.70;53.80
51476;DHT22;37554;50.362;7.568;2023-03-14T14:08:16;18.60;53.90
51476;DHT22;37554;50.362;7.568;2023-03-14T14:10:42;18.60;54.10
51476;DHT22;37554;50.362;7.568;2023-03-14T14:13:11;18.50;54.10
51476;DHT22;37554;50.362;7.568;2023-03-14T14:15:45;18.50;54.20
51476;DHT22;37554;50.362;7.568;2023-03-14T14:18:15;18.50;54.10
51476;DHT22;37554;50.362;7.568;2023-03-14T14:20:44;18.50;54.20
51476;DHT22;37554;50.362;7.568;2023-03-14T14:23:12;18.40;54.10
51476;DHT22;37554;50.362;7.568;2023-03-14T14:25:39;18.50;54.10
51476;DHT22;37554;50.362;7.568;2023-03-14T14:28:25;18.50;54.00
51476;DHT22;37554;50.362;7.568;2023-03-14T14:33:41;18.60;53.70
51476;DHT22;37554;50.362;7.568;2023-03-14T14:36:32;18.60;53.70
51476;DHT22;37554;50.362;7.568;2023-03-14T14:39:11;18.50;53.50
51476;DHT22;37554;50.362;7.568;2023-03-14T14:41:41;18.40;53.60
51476;DHT22;37554;50.362;7.568;2023-03-14T14:44:07;18.40;53.50
51476;DHT22;37554;50.362;7.568;2023-03-14T14:46:34;18.30;53.60
51476;DHT22;37554;50.362;7.568;2023-03-14T14:49:13;18.30;53.70
51476;DHT22;37554;50.362;7.568;2023-03-14T14:51:47;18.30;53.70
51476;DHT22;37554;50.362;7.568;2023-03-14T14:54:19;18.30;53.70
51476;DHT22;37554;50.362;7.568;2023-03-14T14:56:52;18.50;53.60
51476;DHT22;37554;50.362;7.568;2023-03-14T14:59:26;18.60;53.30
51476;DHT22;37554;50.362;7.568;2023-03-14T15:01:58;18.80;53.20
51476;DHT22;37554;50.362;7.568;2023-03-14T15:04:24;18.70;53.10
51476;DHT22;37554;50.362;7.568;2023-03-14T15:06:50;18.60;53.10
51476;DHT22;37554;50.362;7.568;2023-03-14T15:09:18;18.50;53.30
51476;DHT22;37554;50.362;7.568;2023-03-14T15:11:45;18.50;53.30
51476;DHT22;37554;50.362;7.568;2023-03-14T15:14:11;18.50;53.50
51476;DHT22;37554;50.362;7.568;2023-03-14T15:16:38;18.40;53.40
51476;DHT22;37554;50.362;7.568;2023-03-14T15:19:19;18.30;53.50
51476;DHT22;37554;50.362;7.568;2023-03-14T15:21:45;18.20;53.80
51476;DHT22;37554;50.362;7.568;2023-03-14T15:24:10;18.10;53.90
51476;DHT22;37554;50.362;7.568;2023-03-14T15:26:36;18.10;54.00
51476;DHT22;37554;50.362;7.568;2023-03-14T15:29:02;18.00;53.90
51476;DHT22;37554;50.362;7.568;2023-03-14T15:31:27;18.00;53.90
51476;DHT22;37554;50.362;7.568;2023-03-14T15:33:53;17.90;53.90
51476;DHT22;37554;50.362;7.568;2023-03-14T15:36:26;17.80;53.80
51476;DHT22;37554;50.362;7.568;2023-03-14T15:38:53;17.80;53.80
51476;DHT22;37554;50.362;7.568;2023-03-14T15:41:20;17.80;53.80
51476;DHT22;37554;50.362;7.568;2023-03-14T15:43:46;17.70;53.70
51476;DHT22;37554;50.362;7.568;2023-03-14T15:46:12;17.70;53.60
51476;DHT22;37554;50.362;7.568;2023-03-14T15:48:38;17.70;53.50
51476;DHT22;37554;50.362;7.568;2023-03-14T15:51:04;17.70;53.40
51476;DHT22;37554;50.362;7.568;2023-03-14T15:53:30;17.70;53.30
51476;DHT22;37554;50.362;7.568;2023-03-14T15:55:55;17.60;53.10
51476;DHT22;37554;50.362;7.568;2023-03-14T15:58:21;17.60;53.10
51476;DHT22;37554;50.362;7.568;2023-03-14T16:00:47;17.60;53.10
51476;DHT22;37554;50.362;7.568;2023-03-14T16:03:13;17.60;53.00
51476;DHT22;37554;50.362;7.568;2023-03-14T16:05:39;17.50;52.90
51476;DHT22;37554;50.362;7.568;2023-03-14T16:08:06;17.50;53.00
51476;DHT22;37554;50.362;7.568;2023-03-14T16:10:32;17.40;53.10
51476;DHT22;37554;50.362;7.568;2023-03-14T16:12:58;17.30;53.30
51476;DHT22;37554;50.362;7.568;2023-03-14T16:15:24;17.30;54.00
51476;DHT22;37554;50.362;7.568;2023-03-14T16:17:53;17.20;53.40
51476;DHT22;37554;50.362;7.568;2023-03-14T16:20:19;17.20;53.40
51476;DHT22;37554;50.362;7.568;2023-03-14T16:22:45;17.10;53.30
51476;DHT22;37554;50.362;7.568;2023-03-14T16:25:11;17.10;53.20
51476;DHT22;37554;50.362;7.568;2023-03-14T16:27:37;17.10;53.20
51476;DHT22;37554;50.362;7.568;2023-03-14T16:30:03;17.10;53.10
51476;DHT22;37554;50.362;7.568;2023-03-14T16:32:29;17.00;53.00
51476;DHT22;37554;50.362;7.568;2023-03-14T16:34:54;17.00;53.00
51476;DHT22;37554;50.362;7.568;2023-03-14T16:37:25;17.00;52.90
51476;DHT22;37554;50.362;7.568;2023-03-14T16:39:52;16.90;52.80
51476;DHT22;37554;50.362;7.568;2023-03-14T16:42:18;16.90;52.80
51476;DHT22;37554;50.362;7.568;2023-03-14T16:44:44;16.80;52.80
51476;DHT22;37554;50.362;7.568;2023-03-14T16:47:10;16.70;52.80
51476;DHT22;37554;50.362;7.568;2023-03-14T16:49:36;16.70;52.80
51476;DHT22;37554;50.362;7.568;2023-03-14T16:52:01;16.70;52.80
51476;DHT22;37554;50.362;7.568;2023-03-14T16:54:27;16.60;52.70
51476;DHT22;37554;50.362;7.568;2023-03-14T16:56:53;16.60;52.60